Terminal Aerodrome Forecast
Issued by NWS Blacksburg, VA

Home | Current Version | Previous Version | Text Only | Print | Product List | Glossary On
Versions: 1 2 3 4 5 6 7 8 9 10 11 12 13 14 15 16 17 18 19 20 21 22 23 24 25 26 27 28 29 30 31 32 33 34 35 36 37 38 39 40 41 42 43 44 45 46 47 48 49 50
000
FTUS41 KRNK 031744
TAFBLF
TAF
KBLF 031744Z 0318/0418 16008KT 6SM SHRA VCTS SCT011 OVC030CB
      TEMPO 0319/0321 3SM +TSRA BR SCT006 OVC012CB
     FM032100 18006KT 5SM -SHRA BR VCTS OVC015CB
     FM040300 25006KT 3SM -SHRA BR OVC007=

USA.gov is the U.S. government's official web portal to all federal, state and local government web resources and services.